sensor_id;sensor_type;location;lat;lon;timestamp;pressure;altitude;pressure_sealevel;temperature;humidity
27358;BME280;14831;50.474;7.616;2023-03-21T00:00:35;98300;;;7.6;75.9
27358;BME280;14831;50.474;7.616;2023-03-21T00:05:38;98300;;;7.5;75.9
27358;BME280;14831;50.474;7.616;2023-03-21T00:10:35;98290;;;7.5;76.4
27358;BME280;14831;50.474;7.616;2023-03-21T00:15:35;98290;;;7.5;76.6
27358;BME280;14831;50.474;7.616;2023-03-21T00:20:35;98280;;;7.5;76.5
27358;BME280;14831;50.474;7.616;2023-03-21T00:25:35;98280;;;7.5;76.4
27358;BME280;14831;50.474;7.616;2023-03-21T00:30:35;98280;;;7.5;76.3
27358;BME280;14831;50.474;7.616;2023-03-21T00:35:35;98280;;;7.5;76.6
27358;BME280;14831;50.474;7.616;2023-03-21T00:40:35;98280;;;7.5;76.6
27358;BME280;14831;50.474;7.616;2023-03-21T00:45:35;98280;;;7.5;76.2
27358;BME280;14831;50.474;7.616;2023-03-21T00:50:35;98270;;;7.5;76.3
27358;BME280;14831;50.474;7.616;2023-03-21T00:55:35;98260;;;7.5;76.4
27358;BME280;14831;50.474;7.616;2023-03-21T01:00:35;98260;;;7.5;76.4
27358;BME280;14831;50.474;7.616;2023-03-21T01:05:36;98250;;;7.5;76.2
27358;BME280;14831;50.474;7.616;2023-03-21T01:10:36;98260;;;7.5;76.4
27358;BME280;14831;50.474;7.616;2023-03-21T01:15:35;98260;;;7.5;76.2
27358;BME280;14831;50.474;7.616;2023-03-21T01:20:35;98240;;;7.5;76.5
27358;BME280;14831;50.474;7.616;2023-03-21T01:25:35;98250;;;7.5;76.5
27358;BME280;14831;50.474;7.616;2023-03-21T01:30:35;98230;;;7.5;76.5
27358;BME280;14831;50.474;7.616;2023-03-21T01:35:35;98230;;;7.5;76.4
27358;BME280;14831;50.474;7.616;2023-03-21T01:40:35;98230;;;7.5;76.4
27358;BME280;14831;50.474;7.616;2023-03-21T01:46:39;98220;;;7.5;76.5
27358;BME280;14831;50.474;7.616;2023-03-21T01:50:35;98220;;;7.5;77.0
27358;BME280;14831;50.474;7.616;2023-03-21T01:55:35;98220;;;7.5;76.9
27358;BME280;14831;50.474;7.616;2023-03-21T02:00:35;98210;;;7.5;77.0
27358;BME280;14831;50.474;7.616;2023-03-21T02:05:36;98210;;;7.5;77.2
27358;BME280;14831;50.474;7.616;2023-03-21T02:10:35;98210;;;7.5;77.4
27358;BME280;14831;50.474;7.616;2023-03-21T02:15:36;98200;;;7.5;77.2
27358;BME280;14831;50.474;7.616;2023-03-21T02:20:41;98200;;;7.5;77.2
27358;BME280;14831;50.474;7.616;2023-03-21T02:25:40;98180;;;7.5;77.3
27358;BME280;14831;50.474;7.616;2023-03-21T02:30:39;98190;;;7.5;77.4
27358;BME280;14831;50.474;7.616;2023-03-21T02:35:42;98170;;;7.4;77.7
27358;BME280;14831;50.474;7.616;2023-03-21T02:40:36;98170;;;7.3;78.0
27358;BME280;14831;50.474;7.616;2023-03-21T02:45:37;98160;;;7.2;78.6
27358;BME280;14831;50.474;7.616;2023-03-21T02:50:36;98170;;;7.1;78.9
27358;BME280;14831;50.474;7.616;2023-03-21T02:55:35;98160;;;7.0;79.8
27358;BME280;14831;50.474;7.616;2023-03-21T03:00:35;98150;;;6.9;79.7
27358;BME280;14831;50.474;7.616;2023-03-21T03:05:36;98150;;;6.8;80.2
27358;BME280;14831;50.474;7.616;2023-03-21T03:10:41;98160;;;6.8;80.6
27358;BME280;14831;50.474;7.616;2023-03-21T03:15:36;98150;;;6.8;80.7
27358;BME280;14831;50.474;7.616;2023-03-21T03:20:37;98150;;;6.8;80.8
27358;BME280;14831;50.474;7.616;2023-03-21T03:25:36;98140;;;6.8;80.8
27358;BME280;14831;50.474;7.616;2023-03-21T03:30:35;98150;;;6.7;80.9
27358;BME280;14831;50.474;7.616;2023-03-21T03:35:35;98150;;;6.7;81.2
27358;BME280;14831;50.474;7.616;2023-03-21T03:40:36;98140;;;6.6;81.4
27358;BME280;14831;50.474;7.616;2023-03-21T03:45:36;98150;;;6.6;81.7
27358;BME280;14831;50.474;7.616;2023-03-21T03:50:37;98140;;;6.5;82.0
27358;BME280;14831;50.474;7.616;2023-03-21T03:55:35;98130;;;6.4;82.7
27358;BME280;14831;50.474;7.616;2023-03-21T04:00:35;98130;;;6.3;83.2
27358;BME280;14831;50.474;7.616;2023-03-21T04:05:35;98140;;;6.3;83.3
27358;BME280;14831;50.474;7.616;2023-03-21T04:10:35;98140;;;6.3;83.5
27358;BME280;14831;50.474;7.616;2023-03-21T04:15:35;98130;;;6.3;83.5
27358;BME280;14831;50.474;7.616;2023-03-21T04:20:35;98120;;;6.3;83.6
27358;BME280;14831;50.474;7.616;2023-03-21T04:25:35;98120;;;6.3;83.6
27358;BME280;14831;50.474;7.616;2023-03-21T04:30:35;98120;;;6.3;83.6
27358;BME280;14831;50.474;7.616;2023-03-21T04:35:35;98110;;;6.3;83.8
27358;BME280;14831;50.474;7.616;2023-03-21T04:40:35;98110;;;6.3;83.9
27358;BME280;14831;50.474;7.616;2023-03-21T04:45:35;98110;;;6.4;83.9
27358;BME280;14831;50.474;7.616;2023-03-21T04:50:35;98110;;;6.4;83.9
27358;BME280;14831;50.474;7.616;2023-03-21T04:55:35;98120;;;6.5;83.6
27358;BME280;14831;50.474;7.616;2023-03-21T05:00:35;98100;;;6.5;83.4
27358;BME280;14831;50.474;7.616;2023-03-21T05:05:35;98100;;;6.6;83.1
27358;BME280;14831;50.474;7.616;2023-03-21T05:10:35;98100;;;6.6;83.1
27358;BME280;14831;50.474;7.616;2023-03-21T05:15:35;98110;;;6.6;82.9
27358;BME280;14831;50.474;7.616;2023-03-21T05:20:35;98100;;;6.7;82.6
27358;BME280;14831;50.474;7.616;2023-03-21T05:25:35;98110;;;6.8;82.4
27358;BME280;14831;50.474;7.616;2023-03-21T05:30:35;98110;;;6.9;81.9
27358;BME280;14831;50.474;7.616;2023-03-21T05:35:35;98110;;;7.0;81.6
27358;BME280;14831;50.474;7.616;2023-03-21T05:40:35;98110;;;7.1;81.3
27358;BME280;14831;50.474;7.616;2023-03-21T05:45:35;98100;;;7.1;81.1
27358;BME280;14831;50.474;7.616;2023-03-21T05:50:35;98100;;;7.2;80.7
27358;BME280;14831;50.474;7.616;2023-03-21T05:55:35;98100;;;7.3;80.8
27358;BME280;14831;50.474;7.616;2023-03-21T06:00:35;98110;;;7.4;80.5
27358;BME280;14831;50.474;7.616;2023-03-21T06:05:35;98120;;;7.4;79.8
27358;BME280;14831;50.474;7.616;2023-03-21T06:10:35;98110;;;7.5;80.0
27358;BME280;14831;50.474;7.616;2023-03-21T06:15:35;98110;;;7.5;79.6
27358;BME280;14831;50.474;7.616;2023-03-21T06:20:35;98110;;;7.6;79.4
27358;BME280;14831;50.474;7.616;2023-03-21T06:25:35;98110;;;7.7;79.4
27358;BME280;14831;50.474;7.616;2023-03-21T06:30:35;98120;;;7.7;78.8
27358;BME280;14831;50.474;7.616;2023-03-21T06:35:35;98120;;;7.8;78.6
27358;BME280;14831;50.474;7.616;2023-03-21T06:40:36;98120;;;7.9;78.3
27358;BME280;14831;50.474;7.616;2023-03-21T06:45:35;98120;;;8.0;78.2
27358;BME280;14831;50.474;7.616;2023-03-21T06:50:35;98120;;;8.1;78.0
27358;BME280;14831;50.474;7.616;2023-03-21T06:55:35;98130;;;8.1;77.7
27358;BME280;14831;50.474;7.616;2023-03-21T07:00:35;98130;;;8.1;78.1
27358;BME280;14831;50.474;7.616;2023-03-21T07:05:35;98130;;;8.1;78.0
27358;BME280;14831;50.474;7.616;2023-03-21T07:10:37;98130;;;8.2;78.4
27358;BME280;14831;50.474;7.616;2023-03-21T07:15:35;98130;;;8.2;78.2
27358;BME280;14831;50.474;7.616;2023-03-21T07:20:35;98130;;;8.2;78.2
27358;BME280;14831;50.474;7.616;2023-03-21T07:25:35;98130;;;8.3;78.6
27358;BME280;14831;50.474;7.616;2023-03-21T07:30:35;98140;;;8.3;78.1
27358;BME280;14831;50.474;7.616;2023-03-21T07:35:35;98140;;;8.3;78.2
27358;BME280;14831;50.474;7.616;2023-03-21T07:40:35;98140;;;8.4;78.2
27358;BME280;14831;50.474;7.616;2023-03-21T07:45:35;98140;;;8.5;77.9
27358;BME280;14831;50.474;7.616;2023-03-21T07:50:35;98150;;;8.5;77.5
27358;BME280;14831;50.474;7.616;2023-03-21T07:55:35;98150;;;8.6;77.6
27358;BME280;14831;50.474;7.616;2023-03-21T08:00:35;98150;;;8.6;77.3
27358;BME280;14831;50.474;7.616;2023-03-21T08:05:36;98160;;;8.7;77.4
27358;BME280;14831;50.474;7.616;2023-03-21T08:10:35;98180;;;8.6;78.2
27358;BME280;14831;50.474;7.616;2023-03-21T08:15:35;98170;;;8.5;79.1
27358;BME280;14831;50.474;7.616;2023-03-21T08:20:35;98170;;;8.5;80.3
27358;BME280;14831;50.474;7.616;2023-03-21T08:25:35;98180;;;8.5;80.7
27358;BME280;14831;50.474;7.616;2023-03-21T08:30:35;98180;;;8.4;81.2
27358;BME280;14831;50.474;7.616;2023-03-21T08:35:35;98180;;;8.3;83.1
27358;BME280;14831;50.474;7.616;2023-03-21T08:40:35;98180;;;8.2;85.4
27358;BME280;14831;50.474;7.616;2023-03-21T08:45:35;98190;;;8.2;85.9
27358;BME280;14831;50.474;7.616;2023-03-21T08:50:35;98190;;;8.2;86.5
27358;BME280;14831;50.474;7.616;2023-03-21T08:55:35;98190;;;8.1;88.0
27358;BME280;14831;50.474;7.616;2023-03-21T09:00:35;98190;;;8.0;88.1
27358;BME280;14831;50.474;7.616;2023-03-21T09:05:35;98190;;;8.0;89.0
27358;BME280;14831;50.474;7.616;2023-03-21T09:10:35;98190;;;7.9;89.2
27358;BME280;14831;50.474;7.616;2023-03-21T09:15:35;98190;;;7.9;89.6
27358;BME280;14831;50.474;7.616;2023-03-21T09:20:35;98190;;;7.9;90.0
27358;BME280;14831;50.474;7.616;2023-03-21T09:25:35;98200;;;7.9;90.0
27358;BME280;14831;50.474;7.616;2023-03-21T09:30:35;98180;;;8.0;90.5
27358;BME280;14831;50.474;7.616;2023-03-21T09:35:35;98190;;;8.0;91.3
27358;BME280;14831;50.474;7.616;2023-03-21T09:40:39;98190;;;7.9;90.4
27358;BME280;14831;50.474;7.616;2023-03-21T09:45:36;98190;;;7.9;91.9
27358;BME280;14831;50.474;7.616;2023-03-21T09:50:35;98190;;;8.0;92.4
27358;BME280;14831;50.474;7.616;2023-03-21T09:55:36;98180;;;7.9;91.9
27358;BME280;14831;50.474;7.616;2023-03-21T10:00:36;98190;;;7.9;92.0
27358;BME280;14831;50.474;7.616;2023-03-21T10:05:35;98190;;;7.9;91.8
27358;BME280;14831;50.474;7.616;2023-03-21T10:10:36;98200;;;8.0;92.9
27358;BME280;14831;50.474;7.616;2023-03-21T10:15:35;98190;;;8.1;92.4
27358;BME280;14831;50.474;7.616;2023-03-21T10:20:35;98190;;;8.2;93.3
27358;BME280;14831;50.474;7.616;2023-03-21T10:25:36;98180;;;8.1;92.2
27358;BME280;14831;50.474;7.616;2023-03-21T10:30:36;98170;;;8.0;92.8
27358;BME280;14831;50.474;7.616;2023-03-21T10:35:35;98170;;;8.0;92.8
27358;BME280;14831;50.474;7.616;2023-03-21T10:40:35;98170;;;8.0;93.1
27358;BME280;14831;50.474;7.616;2023-03-21T10:45:35;98160;;;7.9;92.9
27358;BME280;14831;50.474;7.616;2023-03-21T10:50:35;98170;;;8.0;94.1
27358;BME280;14831;50.474;7.616;2023-03-21T10:55:38;98150;;;8.0;94.1
27358;BME280;14831;50.474;7.616;2023-03-21T11:00:36;98150;;;8.1;94.6
27358;BME280;14831;50.474;7.616;2023-03-21T11:05:36;98150;;;8.2;94.5
27358;BME280;14831;50.474;7.616;2023-03-21T11:10:36;98150;;;8.2;94.2
27358;BME280;14831;50.474;7.616;2023-03-21T11:15:40;98140;;;8.1;93.9
27358;BME280;14831;50.474;7.616;2023-03-21T11:20:35;98140;;;8.1;94.3
27358;BME280;14831;50.474;7.616;2023-03-21T11:25:36;98140;;;8.3;94.9
27358;BME280;14831;50.474;7.616;2023-03-21T11:30:35;98120;;;8.4;95.1
27358;BME280;14831;50.474;7.616;2023-03-21T11:35:36;98110;;;8.3;93.9
27358;BME280;14831;50.474;7.616;2023-03-21T11:40:35;98110;;;8.4;93.6
27358;BME280;14831;50.474;7.616;2023-03-21T11:45:35;98100;;;8.4;93.7
27358;BME280;14831;50.474;7.616;2023-03-21T11:50:36;98100;;;8.6;93.3
27358;BME280;14831;50.474;7.616;2023-03-21T11:55:36;98100;;;8.5;93.2
27358;BME280;14831;50.474;7.616;2023-03-21T12:00:36;98070;;;8.3;93.3
27358;BME280;14831;50.474;7.616;2023-03-21T12:05:35;98070;;;8.3;93.5
27358;BME280;14831;50.474;7.616;2023-03-21T12:10:37;98070;;;8.4;94.6
27358;BME280;14831;50.474;7.616;2023-03-21T12:15:35;98060;;;8.5;94.4
27358;BME280;14831;50.474;7.616;2023-03-21T12:20:36;98050;;;8.5;94.8
27358;BME280;14831;50.474;7.616;2023-03-21T12:25:36;98040;;;8.5;94.7
27358;BME280;14831;50.474;7.616;2023-03-21T12:30:38;98040;;;8.4;93.9
27358;BME280;14831;50.474;7.616;2023-03-21T12:35:38;98020;;;8.3;94.4
27358;BME280;14831;50.474;7.616;2023-03-21T12:40:38;98020;;;8.4;94.7
27358;BME280;14831;50.474;7.616;2023-03-21T12:45:36;98020;;;8.4;94.6
27358;BME280;14831;50.474;7.616;2023-03-21T12:50:35;98020;;;8.4;95.0
27358;BME280;14831;50.474;7.616;2023-03-21T12:55:35;98020;;;8.4;95.0
27358;BME280;14831;50.474;7.616;2023-03-21T13:00:37;98020;;;8.5;94.7
27358;BME280;14831;50.474;7.616;2023-03-21T13:05:36;98010;;;8.5;94.7
27358;BME280;14831;50.474;7.616;2023-03-21T13:10:35;97980;;;8.5;94.2
27358;BME280;14831;50.474;7.616;2023-03-21T13:15:39;97980;;;8.5;94.9
27358;BME280;14831;50.474;7.616;2023-03-21T13:20:36;97980;;;8.6;94.5
27358;BME280;14831;50.474;7.616;2023-03-21T13:25:38;97980;;;8.7;94.5
27358;BME280;14831;50.474;7.616;2023-03-21T13:30:35;97960;;;8.7;94.0
27358;BME280;14831;50.474;7.616;2023-03-21T13:35:35;97960;;;8.7;93.8
27358;BME280;14831;50.474;7.616;2023-03-21T13:40:36;97960;;;8.9;93.0
27358;BME280;14831;50.474;7.616;2023-03-21T13:45:44;97970;;;8.8;92.8
27358;BME280;14831;50.474;7.616;2023-03-21T13:50:48;97980;;;8.8;92.6
27358;BME280;14831;50.474;7.616;2023-03-21T13:55:38;97960;;;8.8;93.4
27358;BME280;14831;50.474;7.616;2023-03-21T14:00:37;97960;;;8.9;93.1
27358;BME280;14831;50.474;7.616;2023-03-21T14:05:35;97970;;;9.2;93.0
27358;BME280;14831;50.474;7.616;2023-03-21T14:10:36;97950;;;9.0;93.3
27358;BME280;14831;50.474;7.616;2023-03-21T14:15:36;97950;;;8.9;92.3
27358;BME280;14831;50.474;7.616;2023-03-21T14:20:36;97920;;;9.0;93.5
27358;BME280;14831;50.474;7.616;2023-03-21T14:25:35;97950;;;9.0;92.8
27358;BME280;14831;50.474;7.616;2023-03-21T14:30:36;97930;;;9.1;91.5
27358;BME280;14831;50.474;7.616;2023-03-21T14:35:35;97950;;;9.0;91.1
27358;BME280;14831;50.474;7.616;2023-03-21T14:40:35;97940;;;9.0;91.2
27358;BME280;14831;50.474;7.616;2023-03-21T14:45:35;97930;;;9.1;91.1
27358;BME280;14831;50.474;7.616;2023-03-21T14:50:36;97910;;;8.9;92.1
27358;BME280;14831;50.474;7.616;2023-03-21T14:55:40;97900;;;8.9;91.9
27358;BME280;14831;50.474;7.616;2023-03-21T15:00:35;97900;;;8.9;92.6
27358;BME280;14831;50.474;7.616;2023-03-21T15:05:35;97890;;;9.0;92.7
27358;BME280;14831;50.474;7.616;2023-03-21T15:10:35;97890;;;9.0;92.2
27358;BME280;14831;50.474;7.616;2023-03-21T15:15:35;97860;;;9.0;91.9
27358;BME280;14831;50.474;7.616;2023-03-21T15:20:35;97870;;;9.1;91.5
27358;BME280;14831;50.474;7.616;2023-03-21T15:25:35;97870;;;9.0;91.3
27358;BME280;14831;50.474;7.616;2023-03-21T15:30:35;97880;;;9.0;91.4
27358;BME280;14831;50.474;7.616;2023-03-21T15:35:36;97880;;;8.9;91.2
27358;BME280;14831;50.474;7.616;2023-03-21T15:40:37;97860;;;9.0;91.6
27358;BME280;14831;50.474;7.616;2023-03-21T15:45:44;97860;;;8.9;91.7
27358;BME280;14831;50.474;7.616;2023-03-21T15:50:36;97850;;;8.9;91.4
27358;BME280;14831;50.474;7.616;2023-03-21T15:55:39;97850;;;8.9;91.0
27358;BME280;14831;50.474;7.616;2023-03-21T16:00:37;97850;;;9.0;91.2
27358;BME280;14831;50.474;7.616;2023-03-21T16:05:35;97850;;;9.1;91.8
27358;BME280;14831;50.474;7.616;2023-03-21T16:10:36;97840;;;9.1;91.0
27358;BME280;14831;50.474;7.616;2023-03-21T16:15:35;97830;;;9.1;90.3
27358;BME280;14831;50.474;7.616;2023-03-21T16:20:37;97830;;;9.2;90.6
27358;BME280;14831;50.474;7.616;2023-03-21T16:25:35;97830;;;9.1;90.1
27358;BME280;14831;50.474;7.616;2023-03-21T16:30:35;97810;;;9.1;90.3
27358;BME280;14831;50.474;7.616;2023-03-21T16:35:35;97830;;;9.1;90.1
27358;BME280;14831;50.474;7.616;2023-03-21T16:40:36;97840;;;9.0;90.5
27358;BME280;14831;50.474;7.616;2023-03-21T16:45:35;97840;;;9.0;90.7
27358;BME280;14831;50.474;7.616;2023-03-21T16:50:35;97840;;;9.0;90.3
27358;BME280;14831;50.474;7.616;2023-03-21T16:55:35;97840;;;9.1;90.5
27358;BME280;14831;50.474;7.616;2023-03-21T17:00:37;97830;;;9.1;90.4
27358;BME280;14831;50.474;7.616;2023-03-21T17:05:35;97840;;;9.1;90.2
27358;BME280;14831;50.474;7.616;2023-03-21T17:10:35;97830;;;9.2;89.8
27358;BME280;14831;50.474;7.616;2023-03-21T17:15:35;97840;;;9.2;89.5
27358;BME280;14831;50.474;7.616;2023-03-21T17:20:35;97830;;;9.2;90.0
27358;BME280;14831;50.474;7.616;2023-03-21T17:25:35;97840;;;9.1;89.4
27358;BME280;14831;50.474;7.616;2023-03-21T17:30:35;97850;;;9.1;89.7
27358;BME280;14831;50.474;7.616;2023-03-21T17:35:35;97830;;;9.1;90.0
27358;BME280;14831;50.474;7.616;2023-03-21T17:40:35;97850;;;9.0;90.2
27358;BME280;14831;50.474;7.616;2023-03-21T17:45:35;97850;;;8.9;90.3
27358;BME280;14831;50.474;7.616;2023-03-21T17:50:35;97860;;;8.8;90.7
27358;BME280;14831;50.474;7.616;2023-03-21T17:55:35;97860;;;8.7;90.7
27358;BME280;14831;50.474;7.616;2023-03-21T18:00:35;97870;;;8.6;91.0
27358;BME280;14831;50.474;7.616;2023-03-21T18:05:35;97880;;;8.5;91.3
27358;BME280;14831;50.474;7.616;2023-03-21T18:10:35;97880;;;8.5;90.9
27358;BME280;14831;50.474;7.616;2023-03-21T18:15:35;97880;;;8.6;89.7
27358;BME280;14831;50.474;7.616;2023-03-21T18:20:36;97880;;;8.8;88.4
27358;BME280;14831;50.474;7.616;2023-03-21T18:25:35;97880;;;8.9;87.5
27358;BME280;14831;50.474;7.616;2023-03-21T18:30:35;97870;;;9.1;86.5
27358;BME280;14831;50.474;7.616;2023-03-21T18:35:35;97880;;;9.0;86.8
27358;BME280;14831;50.474;7.616;2023-03-21T18:40:35;97880;;;9.0;86.3
27358;BME280;14831;50.474;7.616;2023-03-21T18:45:35;97880;;;9.0;86.0
27358;BME280;14831;50.474;7.616;2023-03-21T18:50:35;97890;;;8.9;86.4
27358;BME280;14831;50.474;7.616;2023-03-21T18:55:35;97880;;;9.0;86.0
27358;BME280;14831;50.474;7.616;2023-03-21T19:00:37;97890;;;9.0;85.6
27358;BME280;14831;50.474;7.616;2023-03-21T19:05:35;97880;;;9.1;85.0
27358;BME280;14831;50.474;7.616;2023-03-21T19:10:35;97870;;;9.2;85.0
27358;BME280;14831;50.474;7.616;2023-03-21T19:15:35;97870;;;9.1;85.1
27358;BME280;14831;50.474;7.616;2023-03-21T19:20:35;97890;;;9.1;84.6
27358;BME280;14831;50.474;7.616;2023-03-21T19:25:35;97880;;;9.2;84.2
27358;BME280;14831;50.474;7.616;2023-03-21T19:30:35;97890;;;9.2;83.8
27358;BME280;14831;50.474;7.616;2023-03-21T19:35:35;97890;;;9.2;83.6
27358;BME280;14831;50.474;7.616;2023-03-21T19:40:37;97880;;;9.3;83.2
27358;BME280;14831;50.474;7.616;2023-03-21T19:45:35;97890;;;9.3;83.0
27358;BME280;14831;50.474;7.616;2023-03-21T19:50:35;97870;;;9.3;83.6
27358;BME280;14831;50.474;7.616;2023-03-21T19:55:35;97860;;;9.3;83.8
27358;BME280;14831;50.474;7.616;2023-03-21T20:00:35;97870;;;9.3;83.8
27358;BME280;14831;50.474;7.616;2023-03-21T20:05:35;97870;;;9.2;84.0
27358;BME280;14831;50.474;7.616;2023-03-21T20:10:35;97860;;;9.3;83.3
27358;BME280;14831;50.474;7.616;2023-03-21T20:15:35;97860;;;9.3;83.8
27358;BME280;14831;50.474;7.616;2023-03-21T20:20:35;97840;;;9.2;84.0
27358;BME280;14831;50.474;7.616;2023-03-21T20:25:37;97860;;;9.2;84.1
27358;BME280;14831;50.474;7.616;2023-03-21T20:30:35;97860;;;9.1;84.4
27358;BME280;14831;50.474;7.616;2023-03-21T20:35:35;97860;;;9.1;84.2
27358;BME280;14831;50.474;7.616;2023-03-21T20:40:35;97870;;;9.0;84.4
27358;BME280;14831;50.474;7.616;2023-03-21T20:45:35;97870;;;8.9;84.8
27358;BME280;14831;50.474;7.616;2023-03-21T20:50:35;97880;;;8.8;84.7
27358;BME280;14831;50.474;7.616;2023-03-21T20:55:35;97860;;;8.8;84.9
27358;BME280;14831;50.474;7.616;2023-03-21T21:00:35;97860;;;8.7;85.1
27358;BME280;14831;50.474;7.616;2023-03-21T21:05:35;97850;;;8.7;85.5
27358;BME280;14831;50.474;7.616;2023-03-21T21:10:36;97860;;;8.6;85.7
27358;BME280;14831;50.474;7.616;2023-03-21T21:15:35;97860;;;8.6;85.8
27358;BME280;14831;50.474;7.616;2023-03-21T21:20:35;97860;;;8.5;86.1
27358;BME280;14831;50.474;7.616;2023-03-21T21:25:35;97860;;;8.5;85.8
27358;BME280;14831;50.474;7.616;2023-03-21T21:30:36;97850;;;8.5;85.6
27358;BME280;14831;50.474;7.616;2023-03-21T21:35:35;97850;;;8.5;85.6
27358;BME280;14831;50.474;7.616;2023-03-21T21:40:35;97840;;;8.5;86.1
27358;BME280;14831;50.474;7.616;2023-03-21T21:45:35;97840;;;8.3;86.6
27358;BME280;14831;50.474;7.616;2023-03-21T21:50:35;97830;;;8.3;86.8
27358;BME280;14831;50.474;7.616;2023-03-21T21:55:35;97830;;;8.2;87.3
27358;BME280;14831;50.474;7.616;2023-03-21T22:00:35;97820;;;8.1;87.4
27358;BME280;14831;50.474;7.616;2023-03-21T22:05:35;97820;;;8.2;86.8
27358;BME280;14831;50.474;7.616;2023-03-21T22:10:35;97810;;;8.3;86.4
27358;BME280;14831;50.474;7.616;2023-03-21T22:15:35;97820;;;8.3;86.5
27358;BME280;14831;50.474;7.616;2023-03-21T22:20:35;97820;;;8.3;86.3
27358;BME280;14831;50.474;7.616;2023-03-21T22:25:35;97820;;;8.3;86.0
27358;BME280;14831;50.474;7.616;2023-03-21T22:30:35;97820;;;8.3;85.7
27358;BME280;14831;50.474;7.616;2023-03-21T22:35:35;97810;;;8.3;85.7
27358;BME280;14831;50.474;7.616;2023-03-21T22:40:35;97810;;;8.3;85.8
27358;BME280;14831;50.474;7.616;2023-03-21T22:45:35;97820;;;8.3;85.9
27358;BME280;14831;50.474;7.616;2023-03-21T22:50:35;97820;;;8.2;86.0
27358;BME280;14831;50.474;7.616;2023-03-21T22:55:35;97810;;;8.2;86.0
27358;BME280;14831;50.474;7.616;2023-03-21T23:00:35;97810;;;8.1;86.1
27358;BME280;14831;50.474;7.616;2023-03-21T23:05:37;97810;;;8.1;86.1
27358;BME280;14831;50.474;7.616;2023-03-21T23:10:35;97800;;;8.1;86.1
27358;BME280;14831;50.474;7.616;2023-03-21T23:15:35;97800;;;8.2;85.5
27358;BME280;14831;50.474;7.616;2023-03-21T23:20:35;97800;;;8.3;84.9
27358;BME280;14831;50.474;7.616;2023-03-21T23:25:35;97800;;;8.3;84.9
27358;BME280;14831;50.474;7.616;2023-03-21T23:30:35;97780;;;8.4;84.3
27358;BME280;14831;50.474;7.616;2023-03-21T23:35:35;97790;;;8.4;84.0
27358;BME280;14831;50.474;7.616;2023-03-21T23:40:36;97790;;;8.4;83.9
27358;BME280;14831;50.474;7.616;2023-03-21T23:45:35;97780;;;8.4;83.7
27358;BME280;14831;50.474;7.616;2023-03-21T23:50:35;97770;;;8.3;84.2
27358;BME280;14831;50.474;7.616;2023-03-21T23:55:35;97780;;;8.2;84.6
